sensor_id;sensor_type;location;lat;lon;timestamp;temperature;humidity
25436;DHT22;13363;52.772;-3.890;2022-12-07T00:01:42;1.30;99.90
25436;DHT22;13363;52.772;-3.890;2022-12-07T00:04:11;1.40;99.90
25436;DHT22;13363;52.772;-3.890;2022-12-07T00:06:38;1.50;99.90
25436;DHT22;13363;52.772;-3.890;2022-12-07T00:09:05;1.50;99.90
25436;DHT22;13363;52.772;-3.890;2022-12-07T00:11:32;1.60;99.90
25436;DHT22;13363;52.772;-3.890;2022-12-07T00:14:00;1.60;99.90
25436;DHT22;13363;52.772;-3.890;2022-12-07T00:16:29;1.40;99.90
25436;DHT22;13363;52.772;-3.890;2022-12-07T00:18:56;1.20;99.90
25436;DHT22;13363;52.772;-3.890;2022-12-07T00:21:30;1.30;99.90
25436;DHT22;13363;52.772;-3.890;2022-12-07T00:23:57;1.30;99.90
25436;DHT22;13363;52.772;-3.890;2022-12-07T00:26:26;1.00;99.90
25436;DHT22;13363;52.772;-3.890;2022-12-07T00:28:54;1.30;99.90
25436;DHT22;13363;52.772;-3.890;2022-12-07T00:31:22;1.10;99.90
25436;DHT22;13363;52.772;-3.890;2022-12-07T00:33:48;1.20;99.90
25436;DHT22;13363;52.772;-3.890;2022-12-07T00:36:19;1.30;99.90
25436;DHT22;13363;52.772;-3.890;2022-12-07T00:38:45;1.50;99.90
25436;DHT22;13363;52.772;-3.890;2022-12-07T00:41:17;1.50;99.90
25436;DHT22;13363;52.772;-3.890;2022-12-07T00:43:45;1.30;99.90
25436;DHT22;13363;52.772;-3.890;2022-12-07T00:46:11;1.30;99.90
25436;DHT22;13363;52.772;-3.890;2022-12-07T00:48:37;1.20;99.90
25436;DHT22;13363;52.772;-3.890;2022-12-07T00:51:04;1.00;99.90
25436;DHT22;13363;52.772;-3.890;2022-12-07T00:53:30;1.10;99.90
25436;DHT22;13363;52.772;-3.890;2022-12-07T00:55:56;1.10;99.90
25436;DHT22;13363;52.772;-3.890;2022-12-07T00:58:23;1.10;99.90
25436;DHT22;13363;52.772;-3.890;2022-12-07T01:00:49;1.10;99.90
25436;DHT22;13363;52.772;-3.890;2022-12-07T01:03:15;1.10;99.90
25436;DHT22;13363;52.772;-3.890;2022-12-07T01:05:52;1.20;99.90
25436;DHT22;13363;52.772;-3.890;2022-12-07T01:08:20;1.20;99.90
25436;DHT22;13363;52.772;-3.890;2022-12-07T01:10:46;1.30;99.90
25436;DHT22;13363;52.772;-3.890;2022-12-07T01:13:12;1.10;99.90
25436;DHT22;13363;52.772;-3.890;2022-12-07T01:15:42;0.90;99.90
25436;DHT22;13363;52.772;-3.890;2022-12-07T01:18:08;0.90;99.90
25436;DHT22;13363;52.772;-3.890;2022-12-07T01:20:34;0.80;99.90
25436;DHT22;13363;52.772;-3.890;2022-12-07T01:23:01;0.90;99.90
25436;DHT22;13363;52.772;-3.890;2022-12-07T01:25:27;0.80;99.90
25436;DHT22;13363;52.772;-3.890;2022-12-07T01:27:53;0.80;99.90
25436;DHT22;13363;52.772;-3.890;2022-12-07T01:30:19;0.60;99.90
25436;DHT22;13363;52.772;-3.890;2022-12-07T01:32:44;0.60;99.90
25436;DHT22;13363;52.772;-3.890;2022-12-07T01:35:10;0.50;99.90
25436;DHT22;13363;52.772;-3.890;2022-12-07T01:37:37;0.60;99.90
25436;DHT22;13363;52.772;-3.890;2022-12-07T01:40:05;0.40;99.90
25436;DHT22;13363;52.772;-3.890;2022-12-07T01:42:31;0.40;99.90
25436;DHT22;13363;52.772;-3.890;2022-12-07T01:47:57;0.60;99.90
25436;DHT22;13363;52.772;-3.890;2022-12-07T01:50:27;0.40;99.90
25436;DHT22;13363;52.772;-3.890;2022-12-07T01:52:56;0.50;99.90
25436;DHT22;13363;52.772;-3.890;2022-12-07T01:55:24;0.60;99.90
25436;DHT22;13363;52.772;-3.890;2022-12-07T01:57:52;0.40;99.90
25436;DHT22;13363;52.772;-3.890;2022-12-07T02:00:22;0.40;99.90
25436;DHT22;13363;52.772;-3.890;2022-12-07T02:05:31;0.50;99.90
25436;DHT22;13363;52.772;-3.890;2022-12-07T02:07:58;0.50;99.90
25436;DHT22;13363;52.772;-3.890;2022-12-07T02:10:27;0.50;99.90
25436;DHT22;13363;52.772;-3.890;2022-12-07T02:13:05;0.50;99.90
25436;DHT22;13363;52.772;-3.890;2022-12-07T02:15:48;0.50;99.90
25436;DHT22;13363;52.772;-3.890;2022-12-07T02:21:38;0.60;99.90
25436;DHT22;13363;52.772;-3.890;2022-12-07T02:30:01;0.80;99.90
25436;DHT22;13363;52.772;-3.890;2022-12-07T02:33:03;0.30;99.90
25436;DHT22;13363;52.772;-3.890;2022-12-07T02:38:12;0.50;99.90
25436;DHT22;13363;52.772;-3.890;2022-12-07T02:43:55;0.30;99.90
25436;DHT22;13363;52.772;-3.890;2022-12-07T02:46:25;0.40;99.90
25436;DHT22;13363;52.772;-3.890;2022-12-07T02:48:53;0.30;99.90
25436;DHT22;13363;52.772;-3.890;2022-12-07T02:51:21;0.20;99.90
25436;DHT22;13363;52.772;-3.890;2022-12-07T02:53:47;0.50;99.90
25436;DHT22;13363;52.772;-3.890;2022-12-07T03:02:24;0.50;99.90
25436;DHT22;13363;52.772;-3.890;2022-12-07T03:13:39;0.30;99.90
25436;DHT22;13363;52.772;-3.890;2022-12-07T03:17:06;0.40;99.90
25436;DHT22;13363;52.772;-3.890;2022-12-07T03:19:15;0.20;99.90
25436;DHT22;13363;52.772;-3.890;2022-12-07T03:22:10;0.20;99.90
25436;DHT22;13363;52.772;-3.890;2022-12-07T03:27:15;0.10;99.90
25436;DHT22;13363;52.772;-3.890;2022-12-07T03:32:39;0.10;99.90
25436;DHT22;13363;52.772;-3.890;2022-12-07T03:35:16;0.10;99.90
25436;DHT22;13363;52.772;-3.890;2022-12-07T03:37:57;0.10;99.90
25436;DHT22;13363;52.772;-3.890;2022-12-07T03:40:45;0.20;99.90
25436;DHT22;13363;52.772;-3.890;2022-12-07T03:43:16;0.30;99.90
25436;DHT22;13363;52.772;-3.890;2022-12-07T03:45:45;0.30;99.90
25436;DHT22;13363;52.772;-3.890;2022-12-07T03:48:35;0.40;99.90
25436;DHT22;13363;52.772;-3.890;2022-12-07T03:54:15;0.20;99.90
25436;DHT22;13363;52.772;-3.890;2022-12-07T03:56:44;0.40;99.90
25436;DHT22;13363;52.772;-3.890;2022-12-07T03:59:14;0.50;99.90
25436;DHT22;13363;52.772;-3.890;2022-12-07T04:01:43;0.50;99.90
25436;DHT22;13363;52.772;-3.890;2022-12-07T04:04:09;0.60;99.90
25436;DHT22;13363;52.772;-3.890;2022-12-07T04:06:34;0.60;99.90
25436;DHT22;13363;52.772;-3.890;2022-12-07T04:09:00;0.80;99.90
25436;DHT22;13363;52.772;-3.890;2022-12-07T04:11:26;1.00;99.90
25436;DHT22;13363;52.772;-3.890;2022-12-07T04:13:52;1.00;99.90
25436;DHT22;13363;52.772;-3.890;2022-12-07T04:16:36;1.00;99.90
25436;DHT22;13363;52.772;-3.890;2022-12-07T04:19:02;1.10;99.90
25436;DHT22;13363;52.772;-3.890;2022-12-07T04:21:27;0.90;99.90
25436;DHT22;13363;52.772;-3.890;2022-12-07T04:23:53;1.10;99.90
25436;DHT22;13363;52.772;-3.890;2022-12-07T04:26:19;1.30;99.90
25436;DHT22;13363;52.772;-3.890;2022-12-07T04:28:45;1.60;99.90
25436;DHT22;13363;52.772;-3.890;2022-12-07T04:31:10;1.50;99.90
25436;DHT22;13363;52.772;-3.890;2022-12-07T04:33:36;1.50;99.90
25436;DHT22;13363;52.772;-3.890;2022-12-07T04:36:02;1.60;99.90
25436;DHT22;13363;52.772;-3.890;2022-12-07T04:38:28;1.60;99.90
25436;DHT22;13363;52.772;-3.890;2022-12-07T04:40:54;1.60;99.90
25436;DHT22;13363;52.772;-3.890;2022-12-07T04:43:20;1.70;99.90
25436;DHT22;13363;52.772;-3.890;2022-12-07T04:45:49;1.60;99.90
25436;DHT22;13363;52.772;-3.890;2022-12-07T04:48:16;1.60;99.90
25436;DHT22;13363;52.772;-3.890;2022-12-07T04:50:42;1.50;99.90
25436;DHT22;13363;52.772;-3.890;2022-12-07T04:53:07;1.70;99.90
25436;DHT22;13363;52.772;-3.890;2022-12-07T04:55:33;1.60;99.90
25436;DHT22;13363;52.772;-3.890;2022-12-07T04:57:59;1.70;99.90
25436;DHT22;13363;52.772;-3.890;2022-12-07T05:00:25;1.70;99.90
25436;DHT22;13363;52.772;-3.890;2022-12-07T05:02:50;1.50;99.90
25436;DHT22;13363;52.772;-3.890;2022-12-07T05:05:16;1.80;99.90
25436;DHT22;13363;52.772;-3.890;2022-12-07T05:07:42;1.70;99.90
25436;DHT22;13363;52.772;-3.890;2022-12-07T05:10:08;1.60;99.90
25436;DHT22;13363;52.772;-3.890;2022-12-07T05:12:34;1.70;99.90
25436;DHT22;13363;52.772;-3.890;2022-12-07T05:15:00;1.80;99.90
25436;DHT22;13363;52.772;-3.890;2022-12-07T05:17:26;1.60;99.90
25436;DHT22;13363;52.772;-3.890;2022-12-07T05:19:51;1.80;99.90
25436;DHT22;13363;52.772;-3.890;2022-12-07T05:22:17;1.70;99.90
25436;DHT22;13363;52.772;-3.890;2022-12-07T05:24:43;1.90;99.90
25436;DHT22;13363;52.772;-3.890;2022-12-07T05:27:09;2.00;99.90
25436;DHT22;13363;52.772;-3.890;2022-12-07T05:29:35;1.80;99.90
25436;DHT22;13363;52.772;-3.890;2022-12-07T05:32:00;1.90;99.90
25436;DHT22;13363;52.772;-3.890;2022-12-07T05:34:26;1.70;99.90
25436;DHT22;13363;52.772;-3.890;2022-12-07T05:36:52;1.90;99.90
25436;DHT22;13363;52.772;-3.890;2022-12-07T05:39:18;1.70;99.90
25436;DHT22;13363;52.772;-3.890;2022-12-07T05:41:43;1.90;99.90
25436;DHT22;13363;52.772;-3.890;2022-12-07T05:44:27;1.70;99.90
25436;DHT22;13363;52.772;-3.890;2022-12-07T05:46:53;2.00;99.90
25436;DHT22;13363;52.772;-3.890;2022-12-07T05:49:19;1.90;99.90
25436;DHT22;13363;52.772;-3.890;2022-12-07T05:51:45;1.90;99.90
25436;DHT22;13363;52.772;-3.890;2022-12-07T05:54:11;2.00;99.90
25436;DHT22;13363;52.772;-3.890;2022-12-07T05:56:36;1.90;99.90
25436;DHT22;13363;52.772;-3.890;2022-12-07T05:59:02;1.80;99.90
25436;DHT22;13363;52.772;-3.890;2022-12-07T06:01:47;1.90;99.90
25436;DHT22;13363;52.772;-3.890;2022-12-07T06:04:12;2.00;99.90
25436;DHT22;13363;52.772;-3.890;2022-12-07T06:06:38;1.90;99.90
25436;DHT22;13363;52.772;-3.890;2022-12-07T06:09:04;2.00;99.90
25436;DHT22;13363;52.772;-3.890;2022-12-07T06:11:30;1.80;99.90
25436;DHT22;13363;52.772;-3.890;2022-12-07T06:14:14;1.90;99.90
25436;DHT22;13363;52.772;-3.890;2022-12-07T06:16:41;2.00;99.90
25436;DHT22;13363;52.772;-3.890;2022-12-07T06:19:07;1.80;99.90
25436;DHT22;13363;52.772;-3.890;2022-12-07T06:21:32;1.90;99.90
25436;DHT22;13363;52.772;-3.890;2022-12-07T06:23:58;1.90;99.90
25436;DHT22;13363;52.772;-3.890;2022-12-07T06:26:24;2.00;99.90
25436;DHT22;13363;52.772;-3.890;2022-12-07T06:28:50;1.90;99.90
25436;DHT22;13363;52.772;-3.890;2022-12-07T06:31:16;2.00;99.90
25436;DHT22;13363;52.772;-3.890;2022-12-07T06:33:42;2.00;99.90
25436;DHT22;13363;52.772;-3.890;2022-12-07T06:36:09;2.20;99.90
25436;DHT22;13363;52.772;-3.890;2022-12-07T06:38:35;2.30;99.90
25436;DHT22;13363;52.772;-3.890;2022-12-07T06:41:01;2.10;99.90
25436;DHT22;13363;52.772;-3.890;2022-12-07T06:43:27;2.20;99.90
25436;DHT22;13363;52.772;-3.890;2022-12-07T06:45:53;2.20;99.90
25436;DHT22;13363;52.772;-3.890;2022-12-07T06:48:18;2.10;99.90
25436;DHT22;13363;52.772;-3.890;2022-12-07T06:50:45;2.30;99.90
25436;DHT22;13363;52.772;-3.890;2022-12-07T06:53:11;2.10;99.90
25436;DHT22;13363;52.772;-3.890;2022-12-07T06:55:37;2.30;99.90
25436;DHT22;13363;52.772;-3.890;2022-12-07T06:58:03;2.40;99.90
25436;DHT22;13363;52.772;-3.890;2022-12-07T07:00:29;2.40;99.90
25436;DHT22;13363;52.772;-3.890;2022-12-07T07:02:55;2.30;99.90
25436;DHT22;13363;52.772;-3.890;2022-12-07T07:05:21;2.20;99.90
25436;DHT22;13363;52.772;-3.890;2022-12-07T07:07:48;2.20;99.90
25436;DHT22;13363;52.772;-3.890;2022-12-07T07:10:15;2.20;99.90
25436;DHT22;13363;52.772;-3.890;2022-12-07T07:12:40;2.00;99.90
25436;DHT22;13363;52.772;-3.890;2022-12-07T07:15:06;2.10;99.90
25436;DHT22;13363;52.772;-3.890;2022-12-07T07:17:32;2.30;99.90
25436;DHT22;13363;52.772;-3.890;2022-12-07T07:19:58;2.20;99.90
25436;DHT22;13363;52.772;-3.890;2022-12-07T07:22:24;2.00;99.90
25436;DHT22;13363;52.772;-3.890;2022-12-07T07:24:50;2.40;99.90
25436;DHT22;13363;52.772;-3.890;2022-12-07T07:27:16;2.30;99.90
25436;DHT22;13363;52.772;-3.890;2022-12-07T07:29:41;2.20;99.90
25436;DHT22;13363;52.772;-3.890;2022-12-07T07:32:07;2.20;99.90
25436;DHT22;13363;52.772;-3.890;2022-12-07T07:34:33;2.10;99.90
25436;DHT22;13363;52.772;-3.890;2022-12-07T07:36:59;2.30;99.90
25436;DHT22;13363;52.772;-3.890;2022-12-07T07:39:25;2.30;99.90
25436;DHT22;13363;52.772;-3.890;2022-12-07T07:41:51;2.40;99.90
25436;DHT22;13363;52.772;-3.890;2022-12-07T07:44:17;2.30;99.90
25436;DHT22;13363;52.772;-3.890;2022-12-07T07:46:42;2.40;99.90
25436;DHT22;13363;52.772;-3.890;2022-12-07T07:49:11;2.20;99.90
25436;DHT22;13363;52.772;-3.890;2022-12-07T07:51:37;2.10;99.90
25436;DHT22;13363;52.772;-3.890;2022-12-07T07:54:03;2.40;99.90
25436;DHT22;13363;52.772;-3.890;2022-12-07T07:56:29;2.40;99.90
25436;DHT22;13363;52.772;-3.890;2022-12-07T07:58:55;2.20;99.90
25436;DHT22;13363;52.772;-3.890;2022-12-07T08:01:21;2.30;99.90
25436;DHT22;13363;52.772;-3.890;2022-12-07T08:03:47;2.50;99.90
25436;DHT22;13363;52.772;-3.890;2022-12-07T08:06:13;2.20;99.90
25436;DHT22;13363;52.772;-3.890;2022-12-07T08:08:38;2.30;99.90
25436;DHT22;13363;52.772;-3.890;2022-12-07T08:11:08;2.30;99.90
25436;DHT22;13363;52.772;-3.890;2022-12-07T08:13:35;2.60;99.90
25436;DHT22;13363;52.772;-3.890;2022-12-07T08:16:06;2.60;99.90
25436;DHT22;13363;52.772;-3.890;2022-12-07T08:18:39;2.50;99.90
25436;DHT22;13363;52.772;-3.890;2022-12-07T08:21:07;2.30;99.90
25436;DHT22;13363;52.772;-3.890;2022-12-07T08:23:33;2.20;99.90
25436;DHT22;13363;52.772;-3.890;2022-12-07T08:26:08;2.20;99.90
25436;DHT22;13363;52.772;-3.890;2022-12-07T08:28:34;2.40;99.90
25436;DHT22;13363;52.772;-3.890;2022-12-07T08:31:01;2.40;99.90
25436;DHT22;13363;52.772;-3.890;2022-12-07T08:33:28;2.30;99.90
25436;DHT22;13363;52.772;-3.890;2022-12-07T08:35:54;2.40;99.90
25436;DHT22;13363;52.772;-3.890;2022-12-07T08:38:19;2.50;99.90
25436;DHT22;13363;52.772;-3.890;2022-12-07T08:40:57;2.60;99.90
25436;DHT22;13363;52.772;-3.890;2022-12-07T08:43:23;2.30;99.90
25436;DHT22;13363;52.772;-3.890;2022-12-07T08:46:03;2.50;99.90
25436;DHT22;13363;52.772;-3.890;2022-12-07T08:48:32;2.70;99.90
25436;DHT22;13363;52.772;-3.890;2022-12-07T08:50:58;2.50;99.90
25436;DHT22;13363;52.772;-3.890;2022-12-07T08:53:24;2.70;99.90
25436;DHT22;13363;52.772;-3.890;2022-12-07T08:55:50;2.60;99.90
25436;DHT22;13363;52.772;-3.890;2022-12-07T08:58:16;2.60;99.90
25436;DHT22;13363;52.772;-3.890;2022-12-07T09:00:42;2.80;99.90
25436;DHT22;13363;52.772;-3.890;2022-12-07T09:03:08;2.90;99.90
25436;DHT22;13363;52.772;-3.890;2022-12-07T09:05:34;2.80;99.90
25436;DHT22;13363;52.772;-3.890;2022-12-07T09:08:01;2.80;99.90
25436;DHT22;13363;52.772;-3.890;2022-12-07T09:10:28;2.60;99.90
25436;DHT22;13363;52.772;-3.890;2022-12-07T09:12:54;2.70;99.90
25436;DHT22;13363;52.772;-3.890;2022-12-07T09:15:19;2.60;99.90
25436;DHT22;13363;52.772;-3.890;2022-12-07T09:17:45;2.70;99.90
25436;DHT22;13363;52.772;-3.890;2022-12-07T09:20:12;2.80;99.90
25436;DHT22;13363;52.772;-3.890;2022-12-07T09:22:37;2.90;99.90
25436;DHT22;13363;52.772;-3.890;2022-12-07T09:25:04;2.80;99.90
25436;DHT22;13363;52.772;-3.890;2022-12-07T09:27:31;2.70;99.90
25436;DHT22;13363;52.772;-3.890;2022-12-07T09:29:57;3.00;99.90
25436;DHT22;13363;52.772;-3.890;2022-12-07T09:32:24;3.00;99.90
25436;DHT22;13363;52.772;-3.890;2022-12-07T09:34:52;3.10;99.90
25436;DHT22;13363;52.772;-3.890;2022-12-07T09:37:19;3.00;99.90
25436;DHT22;13363;52.772;-3.890;2022-12-07T09:39:45;3.00;99.90
25436;DHT22;13363;52.772;-3.890;2022-12-07T09:44:51;3.20;99.90
25436;DHT22;13363;52.772;-3.890;2022-12-07T09:47:17;3.10;99.90
25436;DHT22;13363;52.772;-3.890;2022-12-07T09:49:50;3.10;99.90
25436;DHT22;13363;52.772;-3.890;2022-12-07T09:52:27;3.30;99.90
25436;DHT22;13363;52.772;-3.890;2022-12-07T09:54:54;3.30;99.90
25436;DHT22;13363;52.772;-3.890;2022-12-07T09:57:30;3.30;99.90
25436;DHT22;13363;52.772;-3.890;2022-12-07T10:00:00;3.20;99.90
25436;DHT22;13363;52.772;-3.890;2022-12-07T10:02:39;3.60;99.90
25436;DHT22;13363;52.772;-3.890;2022-12-07T10:05:12;3.60;99.90
25436;DHT22;13363;52.772;-3.890;2022-12-07T10:07:38;3.60;99.90
25436;DHT22;13363;52.772;-3.890;2022-12-07T10:10:14;3.60;99.90
25436;DHT22;13363;52.772;-3.890;2022-12-07T10:13:33;3.70;99.90
25436;DHT22;13363;52.772;-3.890;2022-12-07T10:15:58;3.90;99.90
25436;DHT22;13363;52.772;-3.890;2022-12-07T10:18:32;3.70;99.90
25436;DHT22;13363;52.772;-3.890;2022-12-07T10:23:30;3.90;99.90
25436;DHT22;13363;52.772;-3.890;2022-12-07T10:25:56;3.80;99.90
25436;DHT22;13363;52.772;-3.890;2022-12-07T10:28:23;4.00;99.90
25436;DHT22;13363;52.772;-3.890;2022-12-07T10:30:57;4.00;99.90
25436;DHT22;13363;52.772;-3.890;2022-12-07T10:33:38;4.00;99.90
25436;DHT22;13363;52.772;-3.890;2022-12-07T10:38:53;4.30;99.90
25436;DHT22;13363;52.772;-3.890;2022-12-07T10:41:19;4.40;99.90
25436;DHT22;13363;52.772;-3.890;2022-12-07T10:43:51;4.30;99.90
25436;DHT22;13363;52.772;-3.890;2022-12-07T10:46:45;4.40;99.90
25436;DHT22;13363;52.772;-3.890;2022-12-07T11:05:17;4.80;99.90
25436;DHT22;13363;52.772;-3.890;2022-12-07T11:16:52;5.90;99.90
25436;DHT22;13363;52.772;-3.890;2022-12-07T11:20:00;5.90;99.90
25436;DHT22;13363;52.772;-3.890;2022-12-07T11:22:36;6.00;99.90
25436;DHT22;13363;52.772;-3.890;2022-12-07T11:26:11;6.00;99.90
25436;DHT22;13363;52.772;-3.890;2022-12-07T11:36:40;5.80;99.90
25436;DHT22;13363;52.772;-3.890;2022-12-07T11:42:15;5.90;99.90
25436;DHT22;13363;52.772;-3.890;2022-12-07T11:48:00;5.70;99.90
25436;DHT22;13363;52.772;-3.890;2022-12-07T11:50:36;5.50;99.90
25436;DHT22;13363;52.772;-3.890;2022-12-07T12:04:06;5.80;99.90
25436;DHT22;13363;52.772;-3.890;2022-12-07T12:06:31;5.90;99.90
25436;DHT22;13363;52.772;-3.890;2022-12-07T12:09:17;5.30;99.90
25436;DHT22;13363;52.772;-3.890;2022-12-07T12:25:46;6.00;99.90
25436;DHT22;13363;52.772;-3.890;2022-12-07T12:33:50;6.10;99.90
25436;DHT22;13363;52.772;-3.890;2022-12-07T12:46:47;6.60;99.90
25436;DHT22;13363;52.772;-3.890;2022-12-07T12:49:34;6.80;99.90
25436;DHT22;13363;52.772;-3.890;2022-12-07T12:57:35;7.00;99.90
25436;DHT22;13363;52.772;-3.890;2022-12-07T13:00:20;7.00;99.90
25436;DHT22;13363;52.772;-3.890;2022-12-07T13:05:23;6.80;99.90
25436;DHT22;13363;52.772;-3.890;2022-12-07T13:08:01;6.90;99.90
25436;DHT22;13363;52.772;-3.890;2022-12-07T13:13:01;7.20;99.90
25436;DHT22;13363;52.772;-3.890;2022-12-07T13:15:39;7.20;99.90
25436;DHT22;13363;52.772;-3.890;2022-12-07T13:20:44;6.90;99.90
25436;DHT22;13363;52.772;-3.890;2022-12-07T13:23:10;6.90;99.90
25436;DHT22;13363;52.772;-3.890;2022-12-07T13:25:43;6.80;99.90
25436;DHT22;13363;52.772;-3.890;2022-12-07T13:28:18;6.70;99.90
25436;DHT22;13363;52.772;-3.890;2022-12-07T13:33:39;6.80;99.90
25436;DHT22;13363;52.772;-3.890;2022-12-07T13:36:25;6.80;99.90
25436;DHT22;13363;52.772;-3.890;2022-12-07T13:41:21;7.20;99.90
25436;DHT22;13363;52.772;-3.890;2022-12-07T13:43:51;7.00;99.90
25436;DHT22;13363;52.772;-3.890;2022-12-07T13:46:22;7.00;99.90
25436;DHT22;13363;52.772;-3.890;2022-12-07T13:48:50;7.00;99.90
25436;DHT22;13363;52.772;-3.890;2022-12-07T13:51:26;7.30;99.90
25436;DHT22;13363;52.772;-3.890;2022-12-07T13:54:11;7.60;99.90
25436;DHT22;13363;52.772;-3.890;2022-12-07T13:56:38;7.80;99.90
25436;DHT22;13363;52.772;-3.890;2022-12-07T13:59:21;7.90;99.90
25436;DHT22;13363;52.772;-3.890;2022-12-07T14:01:49;7.90;99.90
25436;DHT22;13363;52.772;-3.890;2022-12-07T14:04:33;7.70;99.90
25436;DHT22;13363;52.772;-3.890;2022-12-07T14:07:01;7.60;99.90
25436;DHT22;13363;52.772;-3.890;2022-12-07T14:10:02;7.60;99.90
25436;DHT22;13363;52.772;-3.890;2022-12-07T14:12:30;7.40;99.90
25436;DHT22;13363;52.772;-3.890;2022-12-07T14:14:57;7.40;99.90
25436;DHT22;13363;52.772;-3.890;2022-12-07T14:17:25;7.00;99.90
25436;DHT22;13363;52.772;-3.890;2022-12-07T14:19:56;6.90;99.90
25436;DHT22;13363;52.772;-3.890;2022-12-07T14:22:30;6.90;99.90
25436;DHT22;13363;52.772;-3.890;2022-12-07T14:25:17;6.80;99.90
25436;DHT22;13363;52.772;-3.890;2022-12-07T14:28:23;6.60;99.90
25436;DHT22;13363;52.772;-3.890;2022-12-07T14:30:50;6.50;99.90
25436;DHT22;13363;52.772;-3.890;2022-12-07T14:33:18;6.40;99.90
25436;DHT22;13363;52.772;-3.890;2022-12-07T14:35:44;6.40;99.90
25436;DHT22;13363;52.772;-3.890;2022-12-07T14:38:10;6.20;99.90
25436;DHT22;13363;52.772;-3.890;2022-12-07T14:40:36;6.30;99.90
25436;DHT22;13363;52.772;-3.890;2022-12-07T14:43:08;6.30;99.90
25436;DHT22;13363;52.772;-3.890;2022-12-07T14:45:34;6.30;99.90
25436;DHT22;13363;52.772;-3.890;2022-12-07T14:48:00;6.20;99.90
25436;DHT22;13363;52.772;-3.890;2022-12-07T14:50:26;6.30;99.90
25436;DHT22;13363;52.772;-3.890;2022-12-07T14:52:57;6.20;99.90
25436;DHT22;13363;52.772;-3.890;2022-12-07T14:55:26;6.20;99.90
25436;DHT22;13363;52.772;-3.890;2022-12-07T14:57:53;6.10;99.90
25436;DHT22;13363;52.772;-3.890;2022-12-07T15:00:21;6.20;99.90
25436;DHT22;13363;52.772;-3.890;2022-12-07T15:02:48;6.10;99.90
25436;DHT22;13363;52.772;-3.890;2022-12-07T15:05:14;6.20;99.90
25436;DHT22;13363;52.772;-3.890;2022-12-07T15:07:40;6.10;99.90
25436;DHT22;13363;52.772;-3.890;2022-12-07T15:12:42;6.10;99.90
25436;DHT22;13363;52.772;-3.890;2022-12-07T15:15:08;6.00;99.90
25436;DHT22;13363;52.772;-3.890;2022-12-07T15:17:34;6.00;99.90
25436;DHT22;13363;52.772;-3.890;2022-12-07T15:20:00;5.90;99.90
25436;DHT22;13363;52.772;-3.890;2022-12-07T15:22:26;6.00;99.90
25436;DHT22;13363;52.772;-3.890;2022-12-07T15:24:52;5.90;99.90
25436;DHT22;13363;52.772;-3.890;2022-12-07T15:27:18;5.80;99.90
25436;DHT22;13363;52.772;-3.890;2022-12-07T15:29:44;5.90;99.90
25436;DHT22;13363;52.772;-3.890;2022-12-07T15:32:09;5.70;99.90
25436;DHT22;13363;52.772;-3.890;2022-12-07T15:34:35;5.70;99.90
25436;DHT22;13363;52.772;-3.890;2022-12-07T15:37:01;5.80;99.90
25436;DHT22;13363;52.772;-3.890;2022-12-07T15:39:27;5.70;99.90
25436;DHT22;13363;52.772;-3.890;2022-12-07T15:41:53;5.80;99.90
25436;DHT22;13363;52.772;-3.890;2022-12-07T15:44:18;5.70;99.90
25436;DHT22;13363;52.772;-3.890;2022-12-07T15:47:04;5.60;99.90
25436;DHT22;13363;52.772;-3.890;2022-12-07T15:49:30;5.60;99.90
25436;DHT22;13363;52.772;-3.890;2022-12-07T15:51:56;5.50;99.90
25436;DHT22;13363;52.772;-3.890;2022-12-07T15:54:27;5.60;99.90
25436;DHT22;13363;52.772;-3.890;2022-12-07T15:56:54;5.60;99.90
25436;DHT22;13363;52.772;-3.890;2022-12-07T15:59:20;5.50;99.90
25436;DHT22;13363;52.772;-3.890;2022-12-07T16:01:46;5.40;99.90
25436;DHT22;13363;52.772;-3.890;2022-12-07T16:04:12;5.50;99.90
25436;DHT22;13363;52.772;-3.890;2022-12-07T16:06:38;5.50;99.90
25436;DHT22;13363;52.772;-3.890;2022-12-07T16:09:04;5.40;99.90
25436;DHT22;13363;52.772;-3.890;2022-12-07T16:11:30;5.40;99.90
25436;DHT22;13363;52.772;-3.890;2022-12-07T16:13:56;5.30;99.90
25436;DHT22;13363;52.772;-3.890;2022-12-07T16:16:22;5.30;99.90
25436;DHT22;13363;52.772;-3.890;2022-12-07T16:18:49;5.30;99.90
25436;DHT22;13363;52.772;-3.890;2022-12-07T16:21:16;5.30;99.90
25436;DHT22;13363;52.772;-3.890;2022-12-07T16:23:43;5.20;99.90
25436;DHT22;13363;52.772;-3.890;2022-12-07T16:26:16;5.20;99.90
25436;DHT22;13363;52.772;-3.890;2022-12-07T16:28:42;5.20;99.90
25436;DHT22;13363;52.772;-3.890;2022-12-07T16:31:12;5.20;99.90
25436;DHT22;13363;52.772;-3.890;2022-12-07T16:33:39;5.20;99.90
25436;DHT22;13363;52.772;-3.890;2022-12-07T16:36:06;5.20;99.90
25436;DHT22;13363;52.772;-3.890;2022-12-07T16:38:33;5.00;99.90
25436;DHT22;13363;52.772;-3.890;2022-12-07T16:40:59;5.10;99.90
25436;DHT22;13363;52.772;-3.890;2022-12-07T16:43:24;5.10;99.90
25436;DHT22;13363;52.772;-3.890;2022-12-07T16:45:50;5.00;99.90
25436;DHT22;13363;52.772;-3.890;2022-12-07T16:48:17;4.80;99.90
25436;DHT22;13363;52.772;-3.890;2022-12-07T16:50:44;5.00;99.90
25436;DHT22;13363;52.772;-3.890;2022-12-07T16:53:11;5.00;99.90
25436;DHT22;13363;52.772;-3.890;2022-12-07T16:55:38;5.10;99.90
25436;DHT22;13363;52.772;-3.890;2022-12-07T16:58:04;5.00;99.90
25436;DHT22;13363;52.772;-3.890;2022-12-07T17:00:30;5.00;99.90
25436;DHT22;13363;52.772;-3.890;2022-12-07T17:05:22;5.10;99.90
25436;DHT22;13363;52.772;-3.890;2022-12-07T17:07:50;5.10;99.90
25436;DHT22;13363;52.772;-3.890;2022-12-07T17:10:16;5.00;99.90
25436;DHT22;13363;52.772;-3.890;2022-12-07T17:15:09;4.90;99.90
25436;DHT22;13363;52.772;-3.890;2022-12-07T17:25:07;4.90;99.90
25436;DHT22;13363;52.772;-3.890;2022-12-07T17:59:51;4.80;99.90
25436;DHT22;13363;52.772;-3.890;2022-12-07T18:04:46;4.60;99.90
25436;DHT22;13363;52.772;-3.890;2022-12-07T18:17:02;4.60;99.90
25436;DHT22;13363;52.772;-3.890;2022-12-07T18:19:28;4.50;99.90
25436;DHT22;13363;52.772;-3.890;2022-12-07T18:21:53;4.50;99.90
25436;DHT22;13363;52.772;-3.890;2022-12-07T18:31:44;4.70;99.90
25436;DHT22;13363;52.772;-3.890;2022-12-07T18:34:14;4.80;99.90
25436;DHT22;13363;52.772;-3.890;2022-12-07T18:36:42;4.70;99.90
25436;DHT22;13363;52.772;-3.890;2022-12-07T18:44:03;4.50;99.90
25436;DHT22;13363;52.772;-3.890;2022-12-07T19:01:29;3.50;99.90
25436;DHT22;13363;52.772;-3.890;2022-12-07T19:46:24;3.00;99.90
25436;DHT22;13363;52.772;-3.890;2022-12-07T20:03:38;2.40;99.90
25436;DHT22;13363;52.772;-3.890;2022-12-07T20:30:58;1.90;99.90
25436;DHT22;13363;52.772;-3.890;2022-12-07T20:35:50;1.60;99.90
